createdAt,value
2023-03-21T00:02:59.479Z,38.7
2023-03-21T00:09:11.640Z,38.7
2023-03-21T00:15:37.839Z,38.6
2023-03-21T00:22:23.565Z,38.5
2023-03-21T00:28:57.318Z,38.5
2023-03-21T00:36:06.285Z,38.4
2023-03-21T00:42:32.188Z,38.4
2023-03-21T00:48:48.752Z,38.3
2023-03-21T00:54:57.726Z,38.3
2023-03-21T01:00:48.102Z,38.2
2023-03-21T01:06:53.974Z,38.1
2023-03-21T01:18:52.605Z,38.1
2023-03-21T01:30:58.300Z,37.9
2023-03-21T01:36:59.964Z,37.9
2023-03-21T01:42:33.694Z,37.8
2023-03-21T01:48:33.726Z,37.8
2023-03-21T01:54:32.018Z,37.8
2023-03-21T02:00:04.145Z,37.7
2023-03-21T02:06:00.125Z,37.6
2023-03-21T02:11:47.753Z,37.6
2023-03-21T02:17:37.559Z,37.6
2023-03-21T02:29:18.891Z,37.4
2023-03-21T02:35:44.207Z,37.4
2023-03-21T02:42:13.039Z,37.3
2023-03-21T02:49:07.181Z,37.3
2023-03-21T02:55:53.537Z,37.3
2023-03-21T03:01:40.245Z,37.1
2023-03-21T03:07:24.637Z,37.1
2023-03-21T03:13:15.968Z,37.1
2023-03-21T03:19:51.395Z,37
2023-03-21T03:25:42.333Z,36.9
2023-03-21T03:31:42.286Z,36.9
2023-03-21T03:37:54.229Z,36.9
2023-03-21T03:43:50.409Z,36.8
2023-03-21T03:49:53.695Z,36.8
2023-03-21T03:56:03.525Z,36.8
2023-03-21T04:02:10.237Z,36.7
2023-03-21T04:08:25.901Z,36.6
2023-03-21T04:14:16.414Z,36.6
2023-03-21T04:20:36.449Z,36.6
2023-03-21T04:26:29.241Z,36.5
2023-03-21T04:32:48.547Z,36.4
2023-03-21T04:38:41.482Z,36.4
2023-03-21T04:44:33.487Z,36.4
2023-03-21T04:50:26.067Z,36.3
2023-03-21T04:56:18.390Z,36.3
2023-03-21T05:02:10.301Z,36.2
2023-03-21T05:08:04.166Z,36.2
2023-03-21T05:13:59.641Z,36.1
2023-03-21T05:19:50.853Z,35.9
2023-03-21T05:25:43.591Z,35.9
2023-03-21T05:31:36.745Z,35.8
2023-03-21T05:37:13.795Z,35.2
2023-03-21T05:43:07.677Z,34.2
2023-03-21T05:49:02.049Z,33.5
2023-03-21T05:54:37.676Z,32.9
2023-03-21T06:00:30.717Z,32.5
2023-03-21T06:06:24.006Z,32.1
2023-03-21T06:12:15.124Z,31.9
2023-03-21T06:18:08.804Z,31.8
2023-03-21T06:23:46.034Z,31.8
2023-03-21T06:29:06.690Z,31.8
2023-03-21T06:34:59.970Z,31.7
2023-03-21T06:40:52.954Z,31.5
2023-03-21T06:46:45.239Z,31.3
2023-03-21T06:52:24.021Z,30.8
2023-03-21T06:58:01.703Z,20.4
2023-03-21T07:03:40.236Z,20.4
2023-03-21T07:09:33.957Z,21.1
2023-03-21T07:15:11.270Z,22.2
2023-03-21T07:21:04.021Z,23.1
2023-03-21T07:27:03.249Z,23.8
2023-03-21T07:32:40.402Z,24.3
2023-03-21T07:38:16.800Z,26.3
2023-03-21T07:43:55.703Z,23.4
2023-03-21T07:49:52.046Z,23.2
2023-03-21T07:55:44.548Z,24
2023-03-21T08:01:37.722Z,24.9
2023-03-21T08:07:32.444Z,25.6
2023-03-21T08:13:27.845Z,26.1
2023-03-21T08:19:20.728Z,26.8
2023-03-21T08:25:13.399Z,28.2
2023-03-21T08:30:51.016Z,27.9
2023-03-21T08:36:47.312Z,27.6
2023-03-21T08:42:41.529Z,27.5
2023-03-21T08:48:19.146Z,27.5
2023-03-21T08:54:13.258Z,27.6
2023-03-21T09:00:07.062Z,27.8
2023-03-21T09:06:00.874Z,28.1
2023-03-21T09:12:14.898Z,28.3
2023-03-21T09:17:55.097Z,28.3
2023-03-21T09:23:48.695Z,28.4
2023-03-21T09:29:42.198Z,28.8
2023-03-21T09:35:19.494Z,29.3
2023-03-21T09:41:11.583Z,29.9
2023-03-21T09:47:05.605Z,30.6
2023-03-21T09:53:17.246Z,30.4
2023-03-21T09:59:09.805Z,30.4
2023-03-21T10:05:04.072Z,30.7
2023-03-21T10:10:57.965Z,31.3
2023-03-21T10:16:53.760Z,32.5
2023-03-21T10:23:13.734Z,35.6
2023-03-21T10:29:23.445Z,39.4
2023-03-21T10:35:17.300Z,43.2
2023-03-21T10:40:56.120Z,44.6
2023-03-21T10:46:53.077Z,44.3
2023-03-21T10:53:09.973Z,42.9
2023-03-21T10:59:03.119Z,43.2
2023-03-21T11:04:41.878Z,44.3
2023-03-21T11:10:27.961Z,45.9
2023-03-21T11:16:22.990Z,46
2023-03-21T11:22:02.977Z,45.9
2023-03-21T11:27:55.845Z,46
2023-03-21T11:33:48.859Z,46.3
2023-03-21T11:39:42.255Z,47.6
2023-03-21T11:45:36.060Z,49
2023-03-21T11:51:19.167Z,46.9
2023-03-21T11:57:12.474Z,46.6
2023-03-21T12:03:17.167Z,46.6
2023-03-21T12:09:24.391Z,45.9
2023-03-21T12:15:25.534Z,45.8
2023-03-21T12:21:18.049Z,45.4
2023-03-21T12:27:14.597Z,44.9
2023-03-21T12:33:20.127Z,44.3
2023-03-21T12:39:14.931Z,44
2023-03-21T12:45:15.143Z,44.2
2023-03-21T12:51:24.220Z,44.2
2023-03-21T12:56:46.535Z,44.5
2023-03-21T13:02:21.285Z,44.3
2023-03-21T13:08:28.012Z,43.8
2023-03-21T13:14:10.413Z,43.4
2023-03-21T13:20:11.120Z,43.1
2023-03-21T13:26:05.230Z,42.5
2023-03-21T13:31:51.577Z,41.9
2023-03-21T13:37:45.659Z,41.6
2023-03-21T13:43:44.203Z,41.2
2023-03-21T13:49:58.064Z,40.7
2023-03-21T13:55:51.273Z,40.3
2023-03-21T14:01:46.583Z,39.9
2023-03-21T14:07:50.014Z,39.4
2023-03-21T14:14:08.283Z,38.8
2023-03-21T14:20:33.568Z,38.3
2023-03-21T14:26:37.030Z,37.7
2023-03-21T14:32:48.555Z,35.9
2023-03-21T14:38:21.366Z,34.8
2023-03-21T14:44:14.130Z,34.1
2023-03-21T14:50:16.042Z,33.4
2023-03-21T14:55:53.882Z,32.9
2023-03-21T15:01:31.225Z,32.6
2023-03-21T15:07:25.646Z,32.2
2023-03-21T15:13:16.957Z,31.9
2023-03-21T15:19:10.040Z,31.8
2023-03-21T15:25:03.653Z,31.6
2023-03-21T15:30:58.800Z,31.4
2023-03-21T15:36:35.784Z,31.3
2023-03-21T15:41:58.397Z,31.2
2023-03-21T15:47:39.274Z,31.1
2023-03-21T15:53:18.456Z,31.1
2023-03-21T15:58:42.097Z,31
2023-03-21T16:04:20.779Z,30.9
2023-03-21T16:10:13.185Z,30.8
2023-03-21T16:16:06.246Z,30.8
2023-03-21T16:21:59.134Z,30.7
2023-03-21T16:27:51.630Z,30.6
2023-03-21T16:33:45.114Z,30.4
2023-03-21T16:39:22.485Z,30.4
2023-03-21T16:45:00.196Z,30.3
2023-03-21T16:50:38.295Z,30.3
2023-03-21T16:56:15.662Z,30.1
2023-03-21T17:02:10.149Z,30.1
2023-03-21T17:08:04.783Z,30
2023-03-21T17:13:42.186Z,29.9
2023-03-21T17:19:35.627Z,29.9
2023-03-21T17:25:15.624Z,29.8
2023-03-21T17:31:08.788Z,29.8
2023-03-21T17:37:01.470Z,29.7
2023-03-21T17:42:53.899Z,29.6
2023-03-21T17:48:32.686Z,29.6
2023-03-21T17:59:34.930Z,29.4
2023-03-21T18:05:30.978Z,29.3
2023-03-21T18:12:07.303Z,29.3
2023-03-21T18:18:09.497Z,29.1
2023-03-21T18:24:14.197Z,29.1
2023-03-21T18:32:37.327Z,29.1
2023-03-21T18:38:37.945Z,28.9
2023-03-21T18:45:44.572Z,28.9
2023-03-21T18:52:27.686Z,28.9
2023-03-21T18:59:37.111Z,28.9
2023-03-21T19:06:01.442Z,28.8
2023-03-21T19:12:28.778Z,28.8
2023-03-21T19:20:00.002Z,28.8
2023-03-21T19:26:29.724Z,28.7
2023-03-21T19:32:46.092Z,28.7
2023-03-21T19:39:04.096Z,28.7
2023-03-21T19:45:34.290Z,28.6
2023-03-21T19:52:37.081Z,28.6
2023-03-21T19:58:43.063Z,28.6
2023-03-21T20:05:03.380Z,28.6
2023-03-21T20:11:47.162Z,28.5
2023-03-21T20:17:57.185Z,28.5
2023-03-21T20:24:29.283Z,28.5
2023-03-21T20:31:46.920Z,28.4
2023-03-21T20:38:52.970Z,28.3
2023-03-21T20:46:10.923Z,28.3
2023-03-21T21:00:05.864Z,28.3
2023-03-21T21:06:36.153Z,28.3
2023-03-21T21:13:19.815Z,28.3
2023-03-21T21:19:27.172Z,28.3
2023-03-21T21:25:29.834Z,28.3
2023-03-21T21:31:23.567Z,28.3
2023-03-21T21:37:16.357Z,28.2
2023-03-21T21:43:08.633Z,28.2
2023-03-21T21:48:46.671Z,28.2
2023-03-21T22:00:17.199Z,28.1
2023-03-21T22:11:35.229Z,28.1
2023-03-21T22:17:12.952Z,28.1
2023-03-21T22:22:53.927Z,28
2023-03-21T22:28:48.033Z,27.9
2023-03-21T22:40:25.721Z,27.9
2023-03-21T22:46:18.601Z,27.9
2023-03-21T22:51:55.048Z,27.9
2023-03-21T22:57:47.982Z,27.9
2023-03-21T23:09:19.525Z,27.8
2023-03-21T23:20:34.000Z,27.8
2023-03-21T23:26:30.650Z,27.8
2023-03-21T23:32:07.353Z,27.8
2023-03-21T23:38:01.212Z,27.7
2023-03-21T23:43:52.772Z,27.7
2023-03-21T23:49:45.552Z,27.6
2023-03-21T23:55:39.523Z,27.6
